sensor_id;sensor_type;location;lat;lon;timestamp;pressure;altitude;pressure_sealevel;temperature;humidity
27685;BME280;46113;50.130;8.526;2023-02-14T00:00:47;101065.38;;;-3.76;83.18
27685;BME280;46113;50.130;8.526;2023-02-14T00:03:14;101067.13;;;-3.75;83.42
27685;BME280;46113;50.130;8.526;2023-02-14T00:05:40;101060.03;;;-3.81;82.96
27685;BME280;46113;50.130;8.526;2023-02-14T00:08:07;101060.78;;;-3.85;82.84
27685;BME280;46113;50.130;8.526;2023-02-14T00:10:33;101064.84;;;-3.93;82.61
27685;BME280;46113;50.130;8.526;2023-02-14T00:13:00;101063.13;;;-3.92;82.49
27685;BME280;46113;50.130;8.526;2023-02-14T00:15:27;101069.25;;;-3.89;82.67
27685;BME280;46113;50.130;8.526;2023-02-14T00:17:55;101069.72;;;-4.02;83.42
27685;BME280;46113;50.130;8.526;2023-02-14T00:20:26;101068.34;;;-3.91;83.23
27685;BME280;46113;50.130;8.526;2023-02-14T00:22:53;101064.88;;;-3.91;83.00
27685;BME280;46113;50.130;8.526;2023-02-14T00:25:20;101061.28;;;-3.97;83.12
27685;BME280;46113;50.130;8.526;2023-02-14T00:27:47;101058.59;;;-4.00;83.16
27685;BME280;46113;50.130;8.526;2023-02-14T00:30:13;101060.31;;;-4.00;82.52
27685;BME280;46113;50.130;8.526;2023-02-14T00:32:41;101064.56;;;-4.02;82.47
27685;BME280;46113;50.130;8.526;2023-02-14T00:35:08;101062.88;;;-4.00;82.78
27685;BME280;46113;50.130;8.526;2023-02-14T00:37:35;101066.66;;;-3.90;82.94
27685;BME280;46113;50.130;8.526;2023-02-14T00:40:04;101066.38;;;-4.00;82.43
27685;BME280;46113;50.130;8.526;2023-02-14T00:42:30;101062.75;;;-4.05;82.57
27685;BME280;46113;50.130;8.526;2023-02-14T00:44:57;101071.28;;;-4.35;83.94
27685;BME280;46113;50.130;8.526;2023-02-14T00:47:24;101066.50;;;-4.23;83.67
27685;BME280;46113;50.130;8.526;2023-02-14T00:49:50;101068.13;;;-4.26;83.71
27685;BME280;46113;50.130;8.526;2023-02-14T00:52:17;101063.06;;;-4.22;83.25
27685;BME280;46113;50.130;8.526;2023-02-14T00:54:43;101054.53;;;-4.21;83.12
27685;BME280;46113;50.130;8.526;2023-02-14T00:57:12;101061.03;;;-4.32;83.70
27685;BME280;46113;50.130;8.526;2023-02-14T00:59:39;101055.78;;;-4.35;83.63
27685;BME280;46113;50.130;8.526;2023-02-14T01:02:06;101058.38;;;-4.35;83.64
27685;BME280;46113;50.130;8.526;2023-02-14T01:04:33;101056.22;;;-4.21;83.40
27685;BME280;46113;50.130;8.526;2023-02-14T01:06:59;101059.47;;;-4.27;83.22
27685;BME280;46113;50.130;8.526;2023-02-14T01:09:26;101064.13;;;-4.44;84.30
27685;BME280;46113;50.130;8.526;2023-02-14T01:11:53;101058.41;;;-4.33;83.89
27685;BME280;46113;50.130;8.526;2023-02-14T01:14:19;101059.09;;;-4.39;83.94
27685;BME280;46113;50.130;8.526;2023-02-14T01:16:48;101060.44;;;-4.51;84.95
27685;BME280;46113;50.130;8.526;2023-02-14T01:19:15;101055.59;;;-4.41;83.97
27685;BME280;46113;50.130;8.526;2023-02-14T01:21:42;101056.56;;;-4.38;84.49
27685;BME280;46113;50.130;8.526;2023-02-14T01:24:09;101062.03;;;-4.28;84.07
27685;BME280;46113;50.130;8.526;2023-02-14T01:26:38;101063.75;;;-4.55;85.59
27685;BME280;46113;50.130;8.526;2023-02-14T01:29:05;101052.22;;;-4.39;84.67
27685;BME280;46113;50.130;8.526;2023-02-14T01:31:33;101059.97;;;-4.39;84.48
27685;BME280;46113;50.130;8.526;2023-02-14T01:34:01;101054.03;;;-4.36;84.54
27685;BME280;46113;50.130;8.526;2023-02-14T01:36:35;101046.63;;;-4.51;83.74
27685;BME280;46113;50.130;8.526;2023-02-14T01:39:09;101049.22;;;-4.51;83.84
27685;BME280;46113;50.130;8.526;2023-02-14T01:41:37;101050.00;;;-4.54;83.87
27685;BME280;46113;50.130;8.526;2023-02-14T01:44:49;101050.41;;;-4.41;83.70
27685;BME280;46113;50.130;8.526;2023-02-14T01:46:52;101051.09;;;-4.47;83.69
27685;BME280;46113;50.130;8.526;2023-02-14T01:49:21;101044.41;;;-4.40;82.69
27685;BME280;46113;50.130;8.526;2023-02-14T01:52:04;101047.84;;;-4.40;82.64
27685;BME280;46113;50.130;8.526;2023-02-14T01:54:34;101047.06;;;-4.39;82.92
27685;BME280;46113;50.130;8.526;2023-02-14T01:57:04;101032.16;;;-4.46;83.24
27685;BME280;46113;50.130;8.526;2023-02-14T01:59:36;101040.91;;;-4.68;83.76
27685;BME280;46113;50.130;8.526;2023-02-14T02:02:04;101027.88;;;-4.45;83.31
27685;BME280;46113;50.130;8.526;2023-02-14T02:04:33;101037.31;;;-4.46;83.58
27685;BME280;46113;50.130;8.526;2023-02-14T02:07:06;101032.34;;;-4.41;82.74
27685;BME280;46113;50.130;8.526;2023-02-14T02:09:38;101042.06;;;-4.60;83.33
27685;BME280;46113;50.130;8.526;2023-02-14T02:12:09;101042.97;;;-4.58;83.60
27685;BME280;46113;50.130;8.526;2023-02-14T02:14:35;101045.56;;;-4.58;82.63
27685;BME280;46113;50.130;8.526;2023-02-14T02:17:12;101042.19;;;-4.55;82.44
27685;BME280;46113;50.130;8.526;2023-02-14T02:26:12;101043.66;;;-4.64;82.23
27685;BME280;46113;50.130;8.526;2023-02-14T02:29:17;101029.03;;;-4.89;82.58
27685;BME280;46113;50.130;8.526;2023-02-14T02:34:19;101033.41;;;-4.61;82.22
27685;BME280;46113;50.130;8.526;2023-02-14T02:37:07;101041.69;;;-4.71;81.90
27685;BME280;46113;50.130;8.526;2023-02-14T02:39:56;101035.78;;;-4.67;82.34
27685;BME280;46113;50.130;8.526;2023-02-14T02:48:08;101039.88;;;-4.74;82.03
27685;BME280;46113;50.130;8.526;2023-02-14T02:50:39;101043.69;;;-4.88;81.95
27685;BME280;46113;50.130;8.526;2023-02-14T03:01:33;101033.25;;;-5.17;83.87
27685;BME280;46113;50.130;8.526;2023-02-14T03:04:10;101041.06;;;-4.90;83.02
27685;BME280;46113;50.130;8.526;2023-02-14T03:06:58;101032.44;;;-4.90;82.70
27685;BME280;46113;50.130;8.526;2023-02-14T03:14:34;101036.69;;;-4.66;83.05
27685;BME280;46113;50.130;8.526;2023-02-14T03:17:33;101028.19;;;-4.88;82.11
27685;BME280;46113;50.130;8.526;2023-02-14T03:33:39;101022.00;;;-4.67;82.90
27685;BME280;46113;50.130;8.526;2023-02-14T03:36:19;101020.44;;;-4.62;82.34
27685;BME280;46113;50.130;8.526;2023-02-14T03:39:28;101018.75;;;-4.62;82.72
27685;BME280;46113;50.130;8.526;2023-02-14T03:41:56;101016.47;;;-4.52;83.19
27685;BME280;46113;50.130;8.526;2023-02-14T03:44:27;101025.13;;;-4.50;82.77
27685;BME280;46113;50.130;8.526;2023-02-14T03:46:57;101028.59;;;-4.50;83.07
27685;BME280;46113;50.130;8.526;2023-02-14T03:49:28;101022.00;;;-4.40;83.63
27685;BME280;46113;50.130;8.526;2023-02-14T03:51:58;101024.66;;;-4.38;82.59
27685;BME280;46113;50.130;8.526;2023-02-14T03:54:29;101029.22;;;-4.31;82.93
27685;BME280;46113;50.130;8.526;2023-02-14T03:59:43;101020.75;;;-4.25;83.99
27685;BME280;46113;50.130;8.526;2023-02-14T04:04:41;101026.09;;;-4.19;85.60
27685;BME280;46113;50.130;8.526;2023-02-14T04:07:11;101024.69;;;-4.09;84.50
27685;BME280;46113;50.130;8.526;2023-02-14T04:09:38;101031.81;;;-4.29;84.59
27685;BME280;46113;50.130;8.526;2023-02-14T04:12:05;101035.34;;;-4.27;84.85
27685;BME280;46113;50.130;8.526;2023-02-14T04:14:32;101036.44;;;-4.21;84.08
27685;BME280;46113;50.130;8.526;2023-02-14T04:16:58;101041.78;;;-4.14;84.51
27685;BME280;46113;50.130;8.526;2023-02-14T04:19:43;101042.81;;;-4.09;83.85
27685;BME280;46113;50.130;8.526;2023-02-14T04:22:10;101039.09;;;-4.17;84.25
27685;BME280;46113;50.130;8.526;2023-02-14T04:24:37;101034.56;;;-4.25;84.27
27685;BME280;46113;50.130;8.526;2023-02-14T04:27:03;101035.78;;;-4.13;84.39
27685;BME280;46113;50.130;8.526;2023-02-14T04:29:42;101037.75;;;-4.33;84.74
27685;BME280;46113;50.130;8.526;2023-02-14T04:32:12;101031.78;;;-4.31;84.42
27685;BME280;46113;50.130;8.526;2023-02-14T04:34:39;101032.22;;;-4.17;84.80
27685;BME280;46113;50.130;8.526;2023-02-14T04:37:07;101043.59;;;-4.12;84.60
27685;BME280;46113;50.130;8.526;2023-02-14T04:39:34;101052.47;;;-4.03;83.70
27685;BME280;46113;50.130;8.526;2023-02-14T04:42:01;101046.50;;;-4.01;84.70
27685;BME280;46113;50.130;8.526;2023-02-14T04:44:28;101040.91;;;-3.86;84.38
27685;BME280;46113;50.130;8.526;2023-02-14T04:46:55;101043.59;;;-3.83;84.64
27685;BME280;46113;50.130;8.526;2023-02-14T04:49:22;101041.53;;;-3.95;84.96
27685;BME280;46113;50.130;8.526;2023-02-14T04:51:48;101049.75;;;-3.79;84.92
27685;BME280;46113;50.130;8.526;2023-02-14T04:54:15;101040.91;;;-3.57;84.69
27685;BME280;46113;50.130;8.526;2023-02-14T04:56:41;101041.19;;;-3.47;85.58
27685;BME280;46113;50.130;8.526;2023-02-14T04:59:08;101039.19;;;-3.56;85.10
27685;BME280;46113;50.130;8.526;2023-02-14T05:01:35;101030.47;;;-3.29;85.52
27685;BME280;46113;50.130;8.526;2023-02-14T05:04:02;101031.38;;;-3.27;85.49
27685;BME280;46113;50.130;8.526;2023-02-14T05:06:29;101025.34;;;-3.28;85.53
27685;BME280;46113;50.130;8.526;2023-02-14T05:08:55;101023.97;;;-3.13;84.54
27685;BME280;46113;50.130;8.526;2023-02-14T05:11:22;101032.00;;;-3.36;84.72
27685;BME280;46113;50.130;8.526;2023-02-14T05:13:49;101028.25;;;-3.15;84.58
27685;BME280;46113;50.130;8.526;2023-02-14T05:16:16;101027.00;;;-2.96;84.12
27685;BME280;46113;50.130;8.526;2023-02-14T05:18:43;101028.41;;;-3.09;83.48
27685;BME280;46113;50.130;8.526;2023-02-14T05:21:09;101026.81;;;-3.04;83.38
27685;BME280;46113;50.130;8.526;2023-02-14T05:23:36;101024.91;;;-3.11;83.53
27685;BME280;46113;50.130;8.526;2023-02-14T05:26:05;101021.13;;;-2.90;83.85
27685;BME280;46113;50.130;8.526;2023-02-14T05:28:32;101022.56;;;-3.02;82.85
27685;BME280;46113;50.130;8.526;2023-02-14T05:30:59;101019.09;;;-3.02;83.40
27685;BME280;46113;50.130;8.526;2023-02-14T05:33:26;101013.25;;;-2.93;82.90
27685;BME280;46113;50.130;8.526;2023-02-14T05:35:53;101017.69;;;-2.89;82.70
27685;BME280;46113;50.130;8.526;2023-02-14T05:38:19;101019.09;;;-3.02;83.01
27685;BME280;46113;50.130;8.526;2023-02-14T05:40:46;101020.72;;;-3.06;83.87
27685;BME280;46113;50.130;8.526;2023-02-14T05:43:13;101020.31;;;-2.88;83.14
27685;BME280;46113;50.130;8.526;2023-02-14T05:45:39;101014.81;;;-3.00;82.97
27685;BME280;46113;50.130;8.526;2023-02-14T05:48:06;101024.97;;;-3.08;82.63
27685;BME280;46113;50.130;8.526;2023-02-14T05:50:33;101018.19;;;-3.03;82.60
27685;BME280;46113;50.130;8.526;2023-02-14T05:53:00;101018.94;;;-3.08;82.93
27685;BME280;46113;50.130;8.526;2023-02-14T05:55:27;101027.44;;;-3.12;83.20
27685;BME280;46113;50.130;8.526;2023-02-14T05:57:54;101012.34;;;-3.29;83.86
27685;BME280;46113;50.130;8.526;2023-02-14T06:00:21;101018.03;;;-3.09;82.92
27685;BME280;46113;50.130;8.526;2023-02-14T06:02:49;101016.72;;;-3.26;83.06
27685;BME280;46113;50.130;8.526;2023-02-14T06:05:16;101018.78;;;-3.15;82.51
27685;BME280;46113;50.130;8.526;2023-02-14T06:07:43;101028.53;;;-3.36;83.24
27685;BME280;46113;50.130;8.526;2023-02-14T06:10:20;101030.16;;;-3.40;82.68
27685;BME280;46113;50.130;8.526;2023-02-14T06:12:48;101025.34;;;-3.28;82.99
27685;BME280;46113;50.130;8.526;2023-02-14T06:15:15;101033.41;;;-3.47;83.05
27685;BME280;46113;50.130;8.526;2023-02-14T06:17:42;101035.34;;;-3.40;83.04
27685;BME280;46113;50.130;8.526;2023-02-14T06:20:09;101042.09;;;-3.74;83.42
27685;BME280;46113;50.130;8.526;2023-02-14T06:22:37;101035.56;;;-3.63;83.09
27685;BME280;46113;50.130;8.526;2023-02-14T06:25:04;101037.47;;;-3.56;83.17
27685;BME280;46113;50.130;8.526;2023-02-14T06:27:31;101041.19;;;-3.47;83.53
27685;BME280;46113;50.130;8.526;2023-02-14T06:29:58;101035.16;;;-3.46;82.43
27685;BME280;46113;50.130;8.526;2023-02-14T06:32:25;101036.75;;;-3.51;82.97
27685;BME280;46113;50.130;8.526;2023-02-14T06:34:51;101039.44;;;-3.47;82.41
27685;BME280;46113;50.130;8.526;2023-02-14T06:37:18;101038.31;;;-3.57;83.04
27685;BME280;46113;50.130;8.526;2023-02-14T06:39:45;101047.94;;;-3.52;82.86
27685;BME280;46113;50.130;8.526;2023-02-14T06:42:12;101044.34;;;-3.56;81.91
27685;BME280;46113;50.130;8.526;2023-02-14T06:44:38;101050.06;;;-3.37;81.87
27685;BME280;46113;50.130;8.526;2023-02-14T06:47:05;101044.19;;;-3.32;81.53
27685;BME280;46113;50.130;8.526;2023-02-14T06:49:33;101041.88;;;-3.21;81.53
27685;BME280;46113;50.130;8.526;2023-02-14T06:51:59;101043.78;;;-3.46;81.59
27685;BME280;46113;50.130;8.526;2023-02-14T06:54:26;101043.56;;;-3.53;82.45
27685;BME280;46113;50.130;8.526;2023-02-14T06:56:52;101040.38;;;-3.45;82.25
27685;BME280;46113;50.130;8.526;2023-02-14T06:59:19;101034.00;;;-3.56;82.61
27685;BME280;46113;50.130;8.526;2023-02-14T07:01:46;101032.53;;;-3.48;83.01
27685;BME280;46113;50.130;8.526;2023-02-14T07:04:16;101042.25;;;-3.39;82.00
27685;BME280;46113;50.130;8.526;2023-02-14T07:06:47;101037.00;;;-3.73;83.19
27685;BME280;46113;50.130;8.526;2023-02-14T07:09:13;101037.47;;;-3.56;82.73
27685;BME280;46113;50.130;8.526;2023-02-14T07:11:44;101035.34;;;-3.40;82.09
27685;BME280;46113;50.130;8.526;2023-02-14T07:14:11;101030.47;;;-3.60;82.56
27685;BME280;46113;50.130;8.526;2023-02-14T07:16:38;101032.31;;;-3.56;82.50
27685;BME280;46113;50.130;8.526;2023-02-14T07:19:04;101029.78;;;-3.54;83.04
27685;BME280;46113;50.130;8.526;2023-02-14T07:21:31;101026.59;;;-3.74;83.10
27685;BME280;46113;50.130;8.526;2023-02-14T07:23:57;101031.84;;;-3.41;82.27
27685;BME280;46113;50.130;8.526;2023-02-14T07:26:24;101036.38;;;-3.64;82.29
27685;BME280;46113;50.130;8.526;2023-02-14T07:28:50;101032.22;;;-3.59;81.81
27685;BME280;46113;50.130;8.526;2023-02-14T07:31:18;101032.31;;;-3.56;81.95
27685;BME280;46113;50.130;8.526;2023-02-14T07:33:45;101039.22;;;-3.55;82.67
27685;BME280;46113;50.130;8.526;2023-02-14T07:36:12;101035.59;;;-3.31;81.33
27685;BME280;46113;50.130;8.526;2023-02-14T07:38:38;101029.03;;;-3.18;81.00
27685;BME280;46113;50.130;8.526;2023-02-14T07:41:05;101028.03;;;-3.23;80.53
27685;BME280;46113;50.130;8.526;2023-02-14T07:43:32;101034.31;;;-3.13;80.64
27685;BME280;46113;50.130;8.526;2023-02-14T07:46:00;101029.53;;;-2.99;80.73
27685;BME280;46113;50.130;8.526;2023-02-14T07:48:28;101033.78;;;-3.01;79.65
27685;BME280;46113;50.130;8.526;2023-02-14T07:50:58;101038.22;;;-2.97;80.22
27685;BME280;46113;50.130;8.526;2023-02-14T07:53:26;101040.56;;;-3.06;79.49
27685;BME280;46113;50.130;8.526;2023-02-14T07:55:53;101039.69;;;-3.07;80.94
27685;BME280;46113;50.130;8.526;2023-02-14T07:58:19;101039.00;;;-2.66;80.78
27685;BME280;46113;50.130;8.526;2023-02-14T08:00:46;101037.06;;;-2.75;80.44
27685;BME280;46113;50.130;8.526;2023-02-14T08:03:13;101034.19;;;-2.52;80.75
27685;BME280;46113;50.130;8.526;2023-02-14T08:05:39;101041.41;;;-2.38;80.36
27685;BME280;46113;50.130;8.526;2023-02-14T08:08:06;101033.06;;;-1.88;79.68
27685;BME280;46113;50.130;8.526;2023-02-14T08:10:33;101032.09;;;-1.91;77.75
27685;BME280;46113;50.130;8.526;2023-02-14T08:12:59;101033.06;;;-1.88;77.84
27685;BME280;46113;50.130;8.526;2023-02-14T08:15:31;101035.56;;;-1.49;75.95
27685;BME280;46113;50.130;8.526;2023-02-14T08:18:18;101038.13;;;-1.92;76.06
27685;BME280;46113;50.130;8.526;2023-02-14T08:20:46;101038.16;;;-1.91;76.44
27685;BME280;46113;50.130;8.526;2023-02-14T08:23:16;101037.69;;;-2.13;76.26
27685;BME280;46113;50.130;8.526;2023-02-14T08:25:43;101040.75;;;-1.91;75.87
27685;BME280;46113;50.130;8.526;2023-02-14T08:28:10;101034.56;;;-1.98;76.24
27685;BME280;46113;50.130;8.526;2023-02-14T08:30:40;101034.84;;;-2.24;77.24
27685;BME280;46113;50.130;8.526;2023-02-14T08:33:07;101033.38;;;-2.49;76.59
27685;BME280;46113;50.130;8.526;2023-02-14T08:35:34;101037.34;;;-2.64;78.19
27685;BME280;46113;50.130;8.526;2023-02-14T08:38:00;101027.78;;;-2.66;78.51
27685;BME280;46113;50.130;8.526;2023-02-14T08:40:27;101025.28;;;-2.26;77.23
27685;BME280;46113;50.130;8.526;2023-02-14T08:42:54;101028.63;;;-2.30;75.88
27685;BME280;46113;50.130;8.526;2023-02-14T08:45:21;101033.75;;;-1.95;75.12
27685;BME280;46113;50.130;8.526;2023-02-14T08:47:48;101037.09;;;-1.99;75.46
27685;BME280;46113;50.130;8.526;2023-02-14T08:50:16;101046.72;;;-2.32;76.06
27685;BME280;46113;50.130;8.526;2023-02-14T08:52:43;101038.56;;;-2.83;76.99
27685;BME280;46113;50.130;8.526;2023-02-14T08:55:10;101035.38;;;-2.37;76.59
27685;BME280;46113;50.130;8.526;2023-02-14T08:57:38;101030.38;;;-2.29;75.87
27685;BME280;46113;50.130;8.526;2023-02-14T09:00:05;101028.22;;;-2.47;76.48
27685;BME280;46113;50.130;8.526;2023-02-14T09:02:33;101028.78;;;-2.59;77.38
27685;BME280;46113;50.130;8.526;2023-02-14T09:05:00;101030.72;;;-2.52;76.85
27685;BME280;46113;50.130;8.526;2023-02-14T09:07:26;101022.22;;;-2.46;77.28
27685;BME280;46113;50.130;8.526;2023-02-14T09:09:53;101027.50;;;-2.42;76.14
27685;BME280;46113;50.130;8.526;2023-02-14T09:12:20;101024.88;;;-2.43;76.80
27685;BME280;46113;50.130;8.526;2023-02-14T09:14:46;101021.25;;;-2.50;76.67
27685;BME280;46113;50.130;8.526;2023-02-14T09:17:14;101022.91;;;-2.17;75.88
27685;BME280;46113;50.130;8.526;2023-02-14T09:19:41;101025.00;;;-2.37;76.37
27685;BME280;46113;50.130;8.526;2023-02-14T09:22:10;101025.25;;;-2.63;77.46
27685;BME280;46113;50.130;8.526;2023-02-14T09:24:38;101022.66;;;-2.63;77.62
27685;BME280;46113;50.130;8.526;2023-02-14T09:27:05;101020.38;;;-2.51;76.78
27685;BME280;46113;50.130;8.526;2023-02-14T09:29:32;101026.84;;;-2.33;76.39
27685;BME280;46113;50.130;8.526;2023-02-14T09:32:00;101020.34;;;-2.52;76.05
27685;BME280;46113;50.130;8.526;2023-02-14T09:34:28;101018.59;;;-2.15;75.96
27685;BME280;46113;50.130;8.526;2023-02-14T09:37:00;101021.25;;;-2.50;76.90
27685;BME280;46113;50.130;8.526;2023-02-14T09:39:27;101021.59;;;-2.36;77.18
27685;BME280;46113;50.130;8.526;2023-02-14T09:42:11;101025.91;;;-2.72;77.45
27685;BME280;46113;50.130;8.526;2023-02-14T09:44:42;101024.59;;;-2.90;79.21
27685;BME280;46113;50.130;8.526;2023-02-14T09:47:18;101026.13;;;-2.63;78.11
27685;BME280;46113;50.130;8.526;2023-02-14T09:49:47;101029.16;;;-2.45;78.32
27685;BME280;46113;50.130;8.526;2023-02-14T09:52:17;101023.38;;;-2.33;78.51
27685;BME280;46113;50.130;8.526;2023-02-14T09:54:52;101027.16;;;-2.19;77.30
27685;BME280;46113;50.130;8.526;2023-02-14T09:57:23;101021.91;;;-2.22;76.89
27685;BME280;46113;50.130;8.526;2023-02-14T10:06:08;101002.91;;;-1.83;76.06
27685;BME280;46113;50.130;8.526;2023-02-14T10:08:50;101009.13;;;-1.73;75.23
27685;BME280;46113;50.130;8.526;2023-02-14T10:11:23;101003.94;;;-1.73;75.95
27685;BME280;46113;50.130;8.526;2023-02-14T10:16:36;100998.72;;;-1.74;76.28
27685;BME280;46113;50.130;8.526;2023-02-14T10:19:25;101007.56;;;-1.66;75.13
27685;BME280;46113;50.130;8.526;2023-02-14T10:21:56;101015.19;;;-1.74;75.70
27685;BME280;46113;50.130;8.526;2023-02-14T10:24:52;101010.47;;;-1.50;75.44
27685;BME280;46113;50.130;8.526;2023-02-14T10:27:33;101012.81;;;-1.63;75.24
27685;BME280;46113;50.130;8.526;2023-02-14T10:30:06;101003.72;;;-1.40;76.15
27685;BME280;46113;50.130;8.526;2023-02-14T10:32:44;101011.28;;;-1.53;74.69
27685;BME280;46113;50.130;8.526;2023-02-14T10:35:22;101001.94;;;-1.43;74.98
27685;BME280;46113;50.130;8.526;2023-02-14T10:43:27;101011.91;;;-1.20;74.55
27685;BME280;46113;50.130;8.526;2023-02-14T10:48:32;101006.81;;;-1.14;74.64
27685;BME280;46113;50.130;8.526;2023-02-14T10:56:36;100997.75;;;-1.36;75.38
27685;BME280;46113;50.130;8.526;2023-02-14T10:59:21;100991.59;;;-1.42;76.04
27685;BME280;46113;50.130;8.526;2023-02-14T11:01:53;100985.69;;;-1.34;75.36
27685;BME280;46113;50.130;8.526;2023-02-14T11:04:23;100981.81;;;-1.09;75.29
27685;BME280;46113;50.130;8.526;2023-02-14T11:06:51;100976.66;;;-1.06;75.56
27685;BME280;46113;50.130;8.526;2023-02-14T11:09:18;100975.19;;;-0.91;74.92
27685;BME280;46113;50.130;8.526;2023-02-14T11:11:56;100971.72;;;-1.39;76.11
27685;BME280;46113;50.130;8.526;2023-02-14T11:14:33;100971.97;;;-1.25;75.80
27685;BME280;46113;50.130;8.526;2023-02-14T11:17:28;100964.22;;;-1.24;75.79
27685;BME280;46113;50.130;8.526;2023-02-14T11:20:00;100966.06;;;-1.17;74.91
27685;BME280;46113;50.130;8.526;2023-02-14T11:22:29;100965.28;;;-1.12;76.31
27685;BME280;46113;50.130;8.526;2023-02-14T11:27:30;100961.88;;;-1.10;75.16
27685;BME280;46113;50.130;8.526;2023-02-14T11:29:57;100958.38;;;-1.10;75.37
27685;BME280;46113;50.130;8.526;2023-02-14T11:32:29;100956.88;;;-0.99;75.36
27685;BME280;46113;50.130;8.526;2023-02-14T11:35:21;100958.22;;;-0.69;74.12
27685;BME280;46113;50.130;8.526;2023-02-14T11:37:54;100955.63;;;-0.69;74.86
27685;BME280;46113;50.130;8.526;2023-02-14T11:40:26;100954.84;;;-0.61;73.99
27685;BME280;46113;50.130;8.526;2023-02-14T11:42:57;100953.03;;;-0.67;74.20
27685;BME280;46113;50.130;8.526;2023-02-14T11:45:42;100955.09;;;-1.01;74.94
27685;BME280;46113;50.130;8.526;2023-02-14T11:48:23;100946.13;;;-0.67;74.62
27685;BME280;46113;50.130;8.526;2023-02-14T11:51:12;100939.81;;;-0.81;74.61
27685;BME280;46113;50.130;8.526;2023-02-14T11:53:46;100931.84;;;-0.94;75.17
27685;BME280;46113;50.130;8.526;2023-02-14T11:56:14;100937.22;;;-0.81;75.26
27685;BME280;46113;50.130;8.526;2023-02-14T12:01:27;100923.72;;;-0.58;74.50
27685;BME280;46113;50.130;8.526;2023-02-14T12:03:58;100920.78;;;-0.79;75.13
27685;BME280;46113;50.130;8.526;2023-02-14T12:06:31;100916.75;;;-0.59;74.39
27685;BME280;46113;50.130;8.526;2023-02-14T12:09:12;100908.75;;;-0.73;75.18
27685;BME280;46113;50.130;8.526;2023-02-14T12:12:03;100904.31;;;-0.81;75.92
27685;BME280;46113;50.130;8.526;2023-02-14T12:14:40;100909.03;;;-0.55;75.20
27685;BME280;46113;50.130;8.526;2023-02-14T12:17:31;100899.63;;;-0.45;74.81
27685;BME280;46113;50.130;8.526;2023-02-14T12:20:13;100903.16;;;-0.41;74.52
27685;BME280;46113;50.130;8.526;2023-02-14T12:25:47;100889.84;;;-0.61;75.50
27685;BME280;46113;50.130;8.526;2023-02-14T12:28:21;100884.00;;;-0.45;74.47
27685;BME280;46113;50.130;8.526;2023-02-14T12:30:51;100885.94;;;-0.31;74.88
27685;BME280;46113;50.130;8.526;2023-02-14T12:33:20;100891.09;;;-0.36;74.46
27685;BME280;46113;50.130;8.526;2023-02-14T12:36:05;100885.59;;;-0.56;74.35
27685;BME280;46113;50.130;8.526;2023-02-14T12:43:48;100885.59;;;-0.56;75.39
27685;BME280;46113;50.130;8.526;2023-02-14T12:51:52;100871.94;;;-0.43;74.51
27685;BME280;46113;50.130;8.526;2023-02-14T13:07:42;100848.28;;;-0.60;75.04
27685;BME280;46113;50.130;8.526;2023-02-14T13:13:20;100842.38;;;-0.48;74.97
27685;BME280;46113;50.130;8.526;2023-02-14T13:16:01;100840.94;;;-0.24;74.69
27685;BME280;46113;50.130;8.526;2023-02-14T13:21:14;100840.63;;;-0.51;74.44
27685;BME280;46113;50.130;8.526;2023-02-14T13:23:46;100833.06;;;-0.30;73.35
27685;BME280;46113;50.130;8.526;2023-02-14T13:26:30;100833.78;;;-0.44;73.66
27685;BME280;46113;50.130;8.526;2023-02-14T13:29:05;100833.84;;;-0.38;73.58
27685;BME280;46113;50.130;8.526;2023-02-14T13:31:32;100823.47;;;-0.33;74.06
27685;BME280;46113;50.130;8.526;2023-02-14T13:34:05;100822.47;;;-0.46;74.20
27685;BME280;46113;50.130;8.526;2023-02-14T13:36:35;100829.28;;;-0.56;74.01
27685;BME280;46113;50.130;8.526;2023-02-14T13:39:03;100820.75;;;-0.45;74.40
27685;BME280;46113;50.130;8.526;2023-02-14T13:41:30;100811.25;;;-0.42;74.60
27685;BME280;46113;50.130;8.526;2023-02-14T13:43:58;100815.63;;;-0.38;73.88
27685;BME280;46113;50.130;8.526;2023-02-14T13:49:00;100815.25;;;-0.69;75.29
27685;BME280;46113;50.130;8.526;2023-02-14T13:52:00;100800.69;;;-0.54;74.59
27685;BME280;46113;50.130;8.526;2023-02-14T13:54:44;100808.53;;;-0.51;74.13
27685;BME280;46113;50.130;8.526;2023-02-14T13:57:32;100809.56;;;-0.37;74.44
27685;BME280;46113;50.130;8.526;2023-02-14T14:02:51;100816.13;;;-0.67;75.21
27685;BME280;46113;50.130;8.526;2023-02-14T14:21:43;100803.22;;;-1.21;77.13
27685;BME280;46113;50.130;8.526;2023-02-14T14:24:25;100804.25;;;-1.11;76.96
27685;BME280;46113;50.130;8.526;2023-02-14T14:29:32;100811.06;;;-1.18;76.76
27685;BME280;46113;50.130;8.526;2023-02-14T14:32:11;100798.94;;;-1.19;76.53
27685;BME280;46113;50.130;8.526;2023-02-14T14:34:54;100797.16;;;-1.21;76.90
27685;BME280;46113;50.130;8.526;2023-02-14T14:37:24;100796.94;;;-1.35;76.83
27685;BME280;46113;50.130;8.526;2023-02-14T14:40:02;100800.72;;;-1.13;76.71
27685;BME280;46113;50.130;8.526;2023-02-14T14:42:35;100796.94;;;-1.37;77.72
27685;BME280;46113;50.130;8.526;2023-02-14T14:45:06;100792.63;;;-1.35;77.30
27685;BME280;46113;50.130;8.526;2023-02-14T14:47:39;100788.84;;;-1.54;77.55
27685;BME280;46113;50.130;8.526;2023-02-14T14:50:33;100796.66;;;-1.54;77.64
27685;BME280;46113;50.130;8.526;2023-02-14T14:53:04;100798.16;;;-1.67;78.84
27685;BME280;46113;50.130;8.526;2023-02-14T14:55:34;100794.84;;;-1.58;78.40
27685;BME280;46113;50.130;8.526;2023-02-14T14:58:04;100789.59;;;-1.63;77.94
27685;BME280;46113;50.130;8.526;2023-02-14T15:00:33;100784.63;;;-1.49;77.93
27685;BME280;46113;50.130;8.526;2023-02-14T15:03:04;100785.31;;;-1.59;78.31
27685;BME280;46113;50.130;8.526;2023-02-14T15:05:37;100780.22;;;-1.53;77.60
27685;BME280;46113;50.130;8.526;2023-02-14T15:10:56;100774.66;;;-1.73;78.72
27685;BME280;46113;50.130;8.526;2023-02-14T15:13:44;100780.66;;;-1.79;78.44
27685;BME280;46113;50.130;8.526;2023-02-14T15:16:21;100771.81;;;-1.90;78.70
27685;BME280;46113;50.130;8.526;2023-02-14T15:18:49;100774.97;;;-2.05;79.79
27685;BME280;46113;50.130;8.526;2023-02-14T15:21:17;100771.41;;;-2.12;79.73
27685;BME280;46113;50.130;8.526;2023-02-14T15:23:44;100775.81;;;-2.08;78.86